sensor_id;sensor_type;location;lat;lon;timestamp;temperature;humidity
30063;DHT22;16889;67.864;24.990;2024-02-26T00:04:12;0.90;99.90
30063;DHT22;16889;67.864;24.990;2024-02-26T00:08:58;0.90;99.90
30063;DHT22;16889;67.864;24.990;2024-02-26T00:13:44;0.90;99.90
30063;DHT22;16889;67.864;24.990;2024-02-26T00:18:30;1.00;99.90
30063;DHT22;16889;67.864;24.990;2024-02-26T00:23:18;1.00;99.90
30063;DHT22;16889;67.864;24.990;2024-02-26T00:28:06;1.00;99.90
30063;DHT22;16889;67.864;24.990;2024-02-26T00:32:56;1.10;99.90
30063;DHT22;16889;67.864;24.990;2024-02-26T00:37:42;1.00;99.90
30063;DHT22;16889;67.864;24.990;2024-02-26T00:42:29;1.10;99.90
30063;DHT22;16889;67.864;24.990;2024-02-26T00:47:15;1.10;99.90
30063;DHT22;16889;67.864;24.990;2024-02-26T00:52:04;1.10;99.90
30063;DHT22;16889;67.864;24.990;2024-02-26T00:56:50;1.10;99.90
30063;DHT22;16889;67.864;24.990;2024-02-26T01:01:36;1.20;99.90
30063;DHT22;16889;67.864;24.990;2024-02-26T01:06:22;1.20;99.90
30063;DHT22;16889;67.864;24.990;2024-02-26T01:11:08;1.20;99.90
30063;DHT22;16889;67.864;24.990;2024-02-26T01:15:54;1.10;99.90
30063;DHT22;16889;67.864;24.990;2024-02-26T01:20:42;1.20;99.90
30063;DHT22;16889;67.864;24.990;2024-02-26T01:25:28;1.20;99.90
30063;DHT22;16889;67.864;24.990;2024-02-26T01:30:14;1.10;99.90
30063;DHT22;16889;67.864;24.990;2024-02-26T01:35:02;1.10;99.90
30063;DHT22;16889;67.864;24.990;2024-02-26T01:40:05;1.10;99.90
30063;DHT22;16889;67.864;24.990;2024-02-26T01:44:53;1.20;99.90
30063;DHT22;16889;67.864;24.990;2024-02-26T01:49:51;1.20;99.90
30063;DHT22;16889;67.864;24.990;2024-02-26T01:54:37;1.20;99.90
30063;DHT22;16889;67.864;24.990;2024-02-26T01:59:23;1.10;99.90
30063;DHT22;16889;67.864;24.990;2024-02-26T02:04:12;1.10;99.90
30063;DHT22;16889;67.864;24.990;2024-02-26T02:08:58;1.00;99.90
30063;DHT22;16889;67.864;24.990;2024-02-26T02:13:46;1.10;99.90
30063;DHT22;16889;67.864;24.990;2024-02-26T02:18:32;1.10;99.90
30063;DHT22;16889;67.864;24.990;2024-02-26T02:23:18;1.00;99.90
30063;DHT22;16889;67.864;24.990;2024-02-26T02:28:04;1.00;99.90
30063;DHT22;16889;67.864;24.990;2024-02-26T02:32:50;1.00;99.90
30063;DHT22;16889;67.864;24.990;2024-02-26T02:37:36;1.00;99.90
30063;DHT22;16889;67.864;24.990;2024-02-26T02:42:22;1.00;99.90
30063;DHT22;16889;67.864;24.990;2024-02-26T02:47:08;0.90;99.90
30063;DHT22;16889;67.864;24.990;2024-02-26T02:51:54;0.90;99.90
30063;DHT22;16889;67.864;24.990;2024-02-26T02:56:43;0.90;99.90
30063;DHT22;16889;67.864;24.990;2024-02-26T03:01:31;0.80;99.90
30063;DHT22;16889;67.864;24.990;2024-02-26T03:06:20;0.90;99.90
30063;DHT22;16889;67.864;24.990;2024-02-26T03:11:06;0.80;99.90
30063;DHT22;16889;67.864;24.990;2024-02-26T03:15:52;0.80;99.90
30063;DHT22;16889;67.864;24.990;2024-02-26T03:20:38;0.90;99.90
30063;DHT22;16889;67.864;24.990;2024-02-26T03:25:26;0.90;99.90
30063;DHT22;16889;67.864;24.990;2024-02-26T03:30:12;0.80;99.90
30063;DHT22;16889;67.864;24.990;2024-02-26T03:34:58;0.80;99.90
30063;DHT22;16889;67.864;24.990;2024-02-26T03:39:44;0.90;99.90
30063;DHT22;16889;67.864;24.990;2024-02-26T03:44:30;0.90;99.90
30063;DHT22;16889;67.864;24.990;2024-02-26T03:49:16;1.00;99.90
30063;DHT22;16889;67.864;24.990;2024-02-26T03:54:04;0.90;99.90
30063;DHT22;16889;67.864;24.990;2024-02-26T03:58:50;1.00;99.90
30063;DHT22;16889;67.864;24.990;2024-02-26T04:03:36;1.00;99.90
30063;DHT22;16889;67.864;24.990;2024-02-26T04:08:22;1.00;99.90
30063;DHT22;16889;67.864;24.990;2024-02-26T04:13:07;1.00;99.90
30063;DHT22;16889;67.864;24.990;2024-02-26T04:17:54;0.80;99.90
30063;DHT22;16889;67.864;24.990;2024-02-26T04:22:40;0.80;99.90
30063;DHT22;16889;67.864;24.990;2024-02-26T04:27:25;0.80;99.90
30063;DHT22;16889;67.864;24.990;2024-02-26T04:32:12;0.80;99.90
30063;DHT22;16889;67.864;24.990;2024-02-26T04:36:58;0.60;99.90
30063;DHT22;16889;67.864;24.990;2024-02-26T04:41:45;0.80;99.90
30063;DHT22;16889;67.864;24.990;2024-02-26T04:46:30;0.80;99.90
30063;DHT22;16889;67.864;24.990;2024-02-26T04:51:16;0.70;99.90
30063;DHT22;16889;67.864;24.990;2024-02-26T04:56:02;0.70;99.90
30063;DHT22;16889;67.864;24.990;2024-02-26T05:00:48;0.80;99.90
30063;DHT22;16889;67.864;24.990;2024-02-26T05:05:34;0.60;99.90
30063;DHT22;16889;67.864;24.990;2024-02-26T05:10:20;0.70;99.90
30063;DHT22;16889;67.864;24.990;2024-02-26T05:15:06;0.80;99.90
30063;DHT22;16889;67.864;24.990;2024-02-26T05:19:55;0.70;99.90
30063;DHT22;16889;67.864;24.990;2024-02-26T05:24:40;0.70;99.90
30063;DHT22;16889;67.864;24.990;2024-02-26T05:29:26;0.80;99.90
30063;DHT22;16889;67.864;24.990;2024-02-26T05:34:12;0.80;99.90
30063;DHT22;16889;67.864;24.990;2024-02-26T05:38:58;0.80;99.90
30063;DHT22;16889;67.864;24.990;2024-02-26T05:43:44;0.80;99.90
30063;DHT22;16889;67.864;24.990;2024-02-26T05:48:30;0.80;99.90
30063;DHT22;16889;67.864;24.990;2024-02-26T05:53:17;0.80;99.90
30063;DHT22;16889;67.864;24.990;2024-02-26T05:58:03;0.80;99.90
30063;DHT22;16889;67.864;24.990;2024-02-26T06:02:49;0.70;99.90
30063;DHT22;16889;67.864;24.990;2024-02-26T06:07:35;0.80;99.90
30063;DHT22;16889;67.864;24.990;2024-02-26T06:12:21;0.70;99.90
30063;DHT22;16889;67.864;24.990;2024-02-26T06:17:07;0.80;99.90
30063;DHT22;16889;67.864;24.990;2024-02-26T06:21:52;0.80;99.90
30063;DHT22;16889;67.864;24.990;2024-02-26T06:26:38;0.80;99.90
30063;DHT22;16889;67.864;24.990;2024-02-26T06:31:24;0.80;99.90
30063;DHT22;16889;67.864;24.990;2024-02-26T06:36:12;0.70;99.90
30063;DHT22;16889;67.864;24.990;2024-02-26T06:40:58;0.80;99.90
30063;DHT22;16889;67.864;24.990;2024-02-26T06:45:44;1.00;99.90
30063;DHT22;16889;67.864;24.990;2024-02-26T06:50:30;0.90;99.90
30063;DHT22;16889;67.864;24.990;2024-02-26T06:55:15;0.90;99.90
30063;DHT22;16889;67.864;24.990;2024-02-26T07:00:02;0.90;99.90
30063;DHT22;16889;67.864;24.990;2024-02-26T07:04:49;0.90;99.90
30063;DHT22;16889;67.864;24.990;2024-02-26T07:09:35;1.00;99.90
30063;DHT22;16889;67.864;24.990;2024-02-26T07:14:21;1.00;99.90
30063;DHT22;16889;67.864;24.990;2024-02-26T07:19:06;1.00;99.90
30063;DHT22;16889;67.864;24.990;2024-02-26T07:23:52;0.90;99.90
30063;DHT22;16889;67.864;24.990;2024-02-26T07:28:38;0.80;99.90
30063;DHT22;16889;67.864;24.990;2024-02-26T07:33:24;0.90;99.90
30063;DHT22;16889;67.864;24.990;2024-02-26T07:38:10;1.00;99.90
30063;DHT22;16889;67.864;24.990;2024-02-26T07:42:56;1.00;99.90
30063;DHT22;16889;67.864;24.990;2024-02-26T07:47:42;0.90;99.90
30063;DHT22;16889;67.864;24.990;2024-02-26T07:52:29;1.00;99.90
30063;DHT22;16889;67.864;24.990;2024-02-26T07:57:17;1.00;99.90
30063;DHT22;16889;67.864;24.990;2024-02-26T08:02:03;1.20;99.90
30063;DHT22;16889;67.864;24.990;2024-02-26T08:07:04;1.10;99.90
30063;DHT22;16889;67.864;24.990;2024-02-26T08:11:49;1.20;99.90
30063;DHT22;16889;67.864;24.990;2024-02-26T08:16:35;1.20;99.90
30063;DHT22;16889;67.864;24.990;2024-02-26T08:21:21;1.30;99.90
30063;DHT22;16889;67.864;24.990;2024-02-26T08:26:07;1.30;99.90
30063;DHT22;16889;67.864;24.990;2024-02-26T08:30:58;1.50;99.90
30063;DHT22;16889;67.864;24.990;2024-02-26T08:35:53;1.50;99.90
30063;DHT22;16889;67.864;24.990;2024-02-26T08:40:39;1.60;99.90
30063;DHT22;16889;67.864;24.990;2024-02-26T08:45:25;1.70;99.90
30063;DHT22;16889;67.864;24.990;2024-02-26T08:50:19;1.80;99.90
30063;DHT22;16889;67.864;24.990;2024-02-26T08:55:06;1.80;99.90
30063;DHT22;16889;67.864;24.990;2024-02-26T08:59:54;1.70;99.90
30063;DHT22;16889;67.864;24.990;2024-02-26T09:04:40;1.90;99.90
30063;DHT22;16889;67.864;24.990;2024-02-26T09:09:25;1.80;99.90
30063;DHT22;16889;67.864;24.990;2024-02-26T09:14:12;1.70;99.90
30063;DHT22;16889;67.864;24.990;2024-02-26T09:18:58;1.90;99.90
30063;DHT22;16889;67.864;24.990;2024-02-26T09:23:49;1.90;99.90
30063;DHT22;16889;67.864;24.990;2024-02-26T09:28:35;1.90;99.90
30063;DHT22;16889;67.864;24.990;2024-02-26T09:33:22;1.90;99.90
30063;DHT22;16889;67.864;24.990;2024-02-26T09:38:08;2.00;99.90
30063;DHT22;16889;67.864;24.990;2024-02-26T09:42:58;2.10;99.90
30063;DHT22;16889;67.864;24.990;2024-02-26T09:47:46;2.10;99.90
30063;DHT22;16889;67.864;24.990;2024-02-26T09:52:33;2.00;99.90
30063;DHT22;16889;67.864;24.990;2024-02-26T09:57:23;2.00;99.90
30063;DHT22;16889;67.864;24.990;2024-02-26T10:02:13;1.90;99.90
30063;DHT22;16889;67.864;24.990;2024-02-26T10:06:59;2.20;99.90
30063;DHT22;16889;67.864;24.990;2024-02-26T10:11:46;2.50;99.90
30063;DHT22;16889;67.864;24.990;2024-02-26T10:16:33;2.50;99.90
30063;DHT22;16889;67.864;24.990;2024-02-26T10:21:20;2.50;99.90
30063;DHT22;16889;67.864;24.990;2024-02-26T10:26:06;2.40;99.90
30063;DHT22;16889;67.864;24.990;2024-02-26T10:30:53;2.20;99.90
30063;DHT22;16889;67.864;24.990;2024-02-26T10:35:39;2.10;99.90
30063;DHT22;16889;67.864;24.990;2024-02-26T10:40:26;2.00;99.90
30063;DHT22;16889;67.864;24.990;2024-02-26T10:45:16;2.20;99.90
30063;DHT22;16889;67.864;24.990;2024-02-26T10:50:11;2.30;99.90
30063;DHT22;16889;67.864;24.990;2024-02-26T10:54:59;2.30;99.90
30063;DHT22;16889;67.864;24.990;2024-02-26T10:59:48;2.40;99.90
30063;DHT22;16889;67.864;24.990;2024-02-26T11:04:35;2.50;99.90
30063;DHT22;16889;67.864;24.990;2024-02-26T11:09:21;2.60;99.90
30063;DHT22;16889;67.864;24.990;2024-02-26T11:14:08;2.70;99.90
30063;DHT22;16889;67.864;24.990;2024-02-26T11:18:55;2.80;99.90
30063;DHT22;16889;67.864;24.990;2024-02-26T11:23:41;2.80;99.90
30063;DHT22;16889;67.864;24.990;2024-02-26T11:28:27;2.70;99.90
30063;DHT22;16889;67.864;24.990;2024-02-26T11:33:17;2.70;99.90
30063;DHT22;16889;67.864;24.990;2024-02-26T11:38:03;2.50;99.90
30063;DHT22;16889;67.864;24.990;2024-02-26T11:42:54;2.50;99.90
30063;DHT22;16889;67.864;24.990;2024-02-26T11:47:40;2.40;99.90
30063;DHT22;16889;67.864;24.990;2024-02-26T11:52:26;2.30;99.90
30063;DHT22;16889;67.864;24.990;2024-02-26T11:57:25;2.30;99.90
30063;DHT22;16889;67.864;24.990;2024-02-26T12:02:12;2.50;99.90
30063;DHT22;16889;67.864;24.990;2024-02-26T12:07:02;2.60;99.90
30063;DHT22;16889;67.864;24.990;2024-02-26T12:11:49;2.30;99.90
30063;DHT22;16889;67.864;24.990;2024-02-26T12:16:40;2.30;99.90
30063;DHT22;16889;67.864;24.990;2024-02-26T12:21:30;2.30;99.90
30063;DHT22;16889;67.864;24.990;2024-02-26T12:26:16;2.20;99.90
30063;DHT22;16889;67.864;24.990;2024-02-26T12:31:02;2.10;99.90
30063;DHT22;16889;67.864;24.990;2024-02-26T12:35:48;2.20;99.90
30063;DHT22;16889;67.864;24.990;2024-02-26T12:40:35;2.10;99.90
30063;DHT22;16889;67.864;24.990;2024-02-26T12:45:21;2.00;99.90
30063;DHT22;16889;67.864;24.990;2024-02-26T12:50:07;1.90;99.90
30063;DHT22;16889;67.864;24.990;2024-02-26T12:54:53;1.90;99.90
30063;DHT22;16889;67.864;24.990;2024-02-26T12:59:39;1.90;99.90
30063;DHT22;16889;67.864;24.990;2024-02-26T13:04:26;2.00;99.90
30063;DHT22;16889;67.864;24.990;2024-02-26T13:09:13;2.10;99.90
30063;DHT22;16889;67.864;24.990;2024-02-26T13:13:59;2.10;99.90
30063;DHT22;16889;67.864;24.990;2024-02-26T13:18:45;2.10;99.90
30063;DHT22;16889;67.864;24.990;2024-02-26T13:23:31;2.20;99.90
30063;DHT22;16889;67.864;24.990;2024-02-26T13:28:18;2.40;99.90
30063;DHT22;16889;67.864;24.990;2024-02-26T13:33:10;2.60;99.90
30063;DHT22;16889;67.864;24.990;2024-02-26T13:37:56;2.60;99.90
30063;DHT22;16889;67.864;24.990;2024-02-26T13:42:41;2.50;99.90
30063;DHT22;16889;67.864;24.990;2024-02-26T13:47:27;2.20;99.90
30063;DHT22;16889;67.864;24.990;2024-02-26T13:52:13;2.10;99.90
30063;DHT22;16889;67.864;24.990;2024-02-26T13:56:59;2.00;99.90
30063;DHT22;16889;67.864;24.990;2024-02-26T14:01:44;1.80;99.90
30063;DHT22;16889;67.864;24.990;2024-02-26T14:06:30;1.70;99.90
30063;DHT22;16889;67.864;24.990;2024-02-26T14:11:16;1.60;99.90
30063;DHT22;16889;67.864;24.990;2024-02-26T14:16:02;1.70;99.90
30063;DHT22;16889;67.864;24.990;2024-02-26T14:20:48;1.70;99.90
30063;DHT22;16889;67.864;24.990;2024-02-26T14:25:33;1.70;99.90
30063;DHT22;16889;67.864;24.990;2024-02-26T14:30:19;1.60;99.90
30063;DHT22;16889;67.864;24.990;2024-02-26T14:35:06;1.60;99.90
30063;DHT22;16889;67.864;24.990;2024-02-26T14:39:52;1.60;99.90
30063;DHT22;16889;67.864;24.990;2024-02-26T14:44:38;1.60;99.90
30063;DHT22;16889;67.864;24.990;2024-02-26T14:49:24;1.60;99.90
30063;DHT22;16889;67.864;24.990;2024-02-26T14:54:12;1.60;99.90
30063;DHT22;16889;67.864;24.990;2024-02-26T14:58:58;1.60;99.90
30063;DHT22;16889;67.864;24.990;2024-02-26T15:03:44;1.50;99.90
30063;DHT22;16889;67.864;24.990;2024-02-26T15:08:30;1.50;99.90
30063;DHT22;16889;67.864;24.990;2024-02-26T15:13:16;1.50;99.90
30063;DHT22;16889;67.864;24.990;2024-02-26T15:18:03;1.40;99.90
30063;DHT22;16889;67.864;24.990;2024-02-26T15:22:49;1.40;99.90
30063;DHT22;16889;67.864;24.990;2024-02-26T15:27:35;1.40;99.90
30063;DHT22;16889;67.864;24.990;2024-02-26T15:32:20;1.30;99.90
30063;DHT22;16889;67.864;24.990;2024-02-26T15:37:06;1.20;99.90
30063;DHT22;16889;67.864;24.990;2024-02-26T15:41:52;1.00;99.90
30063;DHT22;16889;67.864;24.990;2024-02-26T15:46:40;0.80;99.90
30063;DHT22;16889;67.864;24.990;2024-02-26T15:51:26;0.60;99.90
30063;DHT22;16889;67.864;24.990;2024-02-26T15:56:12;0.50;99.90
30063;DHT22;16889;67.864;24.990;2024-02-26T16:00:58;0.10;99.90
30063;DHT22;16889;67.864;24.990;2024-02-26T16:05:45;0.10;99.90
30063;DHT22;16889;67.864;24.990;2024-02-26T16:10:31;0.00;99.90
30063;DHT22;16889;67.864;24.990;2024-02-26T16:15:17;-0.10;99.90
30063;DHT22;16889;67.864;24.990;2024-02-26T16:20:04;-0.20;99.90
30063;DHT22;16889;67.864;24.990;2024-02-26T16:24:50;-0.20;99.90
30063;DHT22;16889;67.864;24.990;2024-02-26T16:29:36;-0.20;99.90
30063;DHT22;16889;67.864;24.990;2024-02-26T16:34:23;-0.20;99.90
30063;DHT22;16889;67.864;24.990;2024-02-26T16:39:08;-0.30;99.90
30063;DHT22;16889;67.864;24.990;2024-02-26T16:43:54;-0.30;99.90
30063;DHT22;16889;67.864;24.990;2024-02-26T16:48:40;-0.30;99.90
30063;DHT22;16889;67.864;24.990;2024-02-26T16:53:26;-0.40;99.90
30063;DHT22;16889;67.864;24.990;2024-02-26T16:58:12;-0.40;99.90
30063;DHT22;16889;67.864;24.990;2024-02-26T17:02:57;-0.50;99.90
30063;DHT22;16889;67.864;24.990;2024-02-26T17:07:45;-0.50;99.90
30063;DHT22;16889;67.864;24.990;2024-02-26T17:12:31;-0.50;99.90
30063;DHT22;16889;67.864;24.990;2024-02-26T17:17:17;-0.60;99.90
30063;DHT22;16889;67.864;24.990;2024-02-26T17:22:03;-0.50;99.90
30063;DHT22;16889;67.864;24.990;2024-02-26T17:26:49;-0.50;99.90
30063;DHT22;16889;67.864;24.990;2024-02-26T17:31:35;-0.50;99.90
30063;DHT22;16889;67.864;24.990;2024-02-26T17:36:27;-0.50;99.90
30063;DHT22;16889;67.864;24.990;2024-02-26T17:41:12;-0.80;99.90
30063;DHT22;16889;67.864;24.990;2024-02-26T17:45:58;-0.90;99.90
30063;DHT22;16889;67.864;24.990;2024-02-26T17:50:44;-0.90;99.90
30063;DHT22;16889;67.864;24.990;2024-02-26T17:55:30;-1.00;99.90
30063;DHT22;16889;67.864;24.990;2024-02-26T18:00:15;-1.00;99.90
30063;DHT22;16889;67.864;24.990;2024-02-26T18:05:01;-1.20;99.90
30063;DHT22;16889;67.864;24.990;2024-02-26T18:09:47;-1.30;99.90
30063;DHT22;16889;67.864;24.990;2024-02-26T18:14:33;-1.20;99.90
30063;DHT22;16889;67.864;24.990;2024-02-26T18:19:19;-1.40;99.90
30063;DHT22;16889;67.864;24.990;2024-02-26T18:24:04;-1.40;99.90
30063;DHT22;16889;67.864;24.990;2024-02-26T18:28:50;-1.30;99.90
30063;DHT22;16889;67.864;24.990;2024-02-26T18:33:36;-1.40;99.90
30063;DHT22;16889;67.864;24.990;2024-02-26T18:38:22;-1.50;99.90
30063;DHT22;16889;67.864;24.990;2024-02-26T18:43:08;-1.80;99.90
30063;DHT22;16889;67.864;24.990;2024-02-26T18:47:55;-2.10;99.90
30063;DHT22;16889;67.864;24.990;2024-02-26T18:52:41;-2.20;99.90
30063;DHT22;16889;67.864;24.990;2024-02-26T18:57:26;-2.20;99.90
30063;DHT22;16889;67.864;24.990;2024-02-26T19:02:13;-2.20;99.90
30063;DHT22;16889;67.864;24.990;2024-02-26T19:06:59;-2.30;99.90
30063;DHT22;16889;67.864;24.990;2024-02-26T19:11:48;-2.30;99.90
30063;DHT22;16889;67.864;24.990;2024-02-26T19:16:35;-2.40;99.90
30063;DHT22;16889;67.864;24.990;2024-02-26T19:21:21;-2.40;99.90
30063;DHT22;16889;67.864;24.990;2024-02-26T19:26:07;-2.50;99.90
30063;DHT22;16889;67.864;24.990;2024-02-26T19:30:53;-2.50;99.90
30063;DHT22;16889;67.864;24.990;2024-02-26T19:35:38;-2.60;99.90
30063;DHT22;16889;67.864;24.990;2024-02-26T19:40:24;-2.70;99.90
30063;DHT22;16889;67.864;24.990;2024-02-26T19:45:10;-3.10;99.90
30063;DHT22;16889;67.864;24.990;2024-02-26T19:49:57;-3.30;99.90
30063;DHT22;16889;67.864;24.990;2024-02-26T19:54:43;-3.30;99.90
30063;DHT22;16889;67.864;24.990;2024-02-26T19:59:28;-3.30;99.90
30063;DHT22;16889;67.864;24.990;2024-02-26T20:04:14;-3.20;99.90
30063;DHT22;16889;67.864;24.990;2024-02-26T20:09:01;-3.30;99.90
30063;DHT22;16889;67.864;24.990;2024-02-26T20:13:47;-3.30;99.90
30063;DHT22;16889;67.864;24.990;2024-02-26T20:18:33;-3.60;99.90
30063;DHT22;16889;67.864;24.990;2024-02-26T20:23:19;-3.80;99.90
30063;DHT22;16889;67.864;24.990;2024-02-26T20:28:05;-3.90;99.90
30063;DHT22;16889;67.864;24.990;2024-02-26T20:32:51;-3.90;99.90
30063;DHT22;16889;67.864;24.990;2024-02-26T20:37:37;-4.00;99.90
30063;DHT22;16889;67.864;24.990;2024-02-26T20:42:25;-4.10;99.90
30063;DHT22;16889;67.864;24.990;2024-02-26T20:47:11;-4.10;99.90
30063;DHT22;16889;67.864;24.990;2024-02-26T20:51:57;-4.10;99.90
30063;DHT22;16889;67.864;24.990;2024-02-26T20:56:43;-4.20;99.90
30063;DHT22;16889;67.864;24.990;2024-02-26T21:01:30;-4.20;99.90
30063;DHT22;16889;67.864;24.990;2024-02-26T21:06:16;-4.30;99.90
30063;DHT22;16889;67.864;24.990;2024-02-26T21:11:02;-4.60;99.90
30063;DHT22;16889;67.864;24.990;2024-02-26T21:15:49;-4.70;99.90
30063;DHT22;16889;67.864;24.990;2024-02-26T21:20:35;-4.60;99.90
30063;DHT22;16889;67.864;24.990;2024-02-26T21:25:21;-4.60;99.90
30063;DHT22;16889;67.864;24.990;2024-02-26T21:30:07;-4.50;99.90
30063;DHT22;16889;67.864;24.990;2024-02-26T21:34:53;-4.70;99.90
30063;DHT22;16889;67.864;24.990;2024-02-26T21:39:39;-4.80;99.90
30063;DHT22;16889;67.864;24.990;2024-02-26T21:44:25;-5.10;99.90
30063;DHT22;16889;67.864;24.990;2024-02-26T21:49:10;-5.00;99.90
30063;DHT22;16889;67.864;24.990;2024-02-26T21:53:56;-5.00;99.90
30063;DHT22;16889;67.864;24.990;2024-02-26T21:58:42;-5.00;99.90
30063;DHT22;16889;67.864;24.990;2024-02-26T22:03:27;-5.00;99.90
30063;DHT22;16889;67.864;24.990;2024-02-26T22:08:13;-5.20;99.90
30063;DHT22;16889;67.864;24.990;2024-02-26T22:12:59;-5.30;99.90
30063;DHT22;16889;67.864;24.990;2024-02-26T22:17:45;-5.70;99.90
30063;DHT22;16889;67.864;24.990;2024-02-26T22:22:30;-5.80;99.90
30063;DHT22;16889;67.864;24.990;2024-02-26T22:27:16;-5.70;99.90
30063;DHT22;16889;67.864;24.990;2024-02-26T22:32:02;-5.70;99.90
30063;DHT22;16889;67.864;24.990;2024-02-26T22:36:48;-5.90;99.90
30063;DHT22;16889;67.864;24.990;2024-02-26T22:41:39;-6.20;99.90
30063;DHT22;16889;67.864;24.990;2024-02-26T22:46:25;-6.20;99.90
30063;DHT22;16889;67.864;24.990;2024-02-26T22:51:11;-5.90;99.90
30063;DHT22;16889;67.864;24.990;2024-02-26T22:55:57;-5.90;99.90
30063;DHT22;16889;67.864;24.990;2024-02-26T23:00:43;-5.90;99.90
30063;DHT22;16889;67.864;24.990;2024-02-26T23:05:30;-6.20;99.90
30063;DHT22;16889;67.864;24.990;2024-02-26T23:10:16;-6.20;99.90
30063;DHT22;16889;67.864;24.990;2024-02-26T23:15:01;-6.40;99.90
30063;DHT22;16889;67.864;24.990;2024-02-26T23:19:47;-6.50;99.90
30063;DHT22;16889;67.864;24.990;2024-02-26T23:24:34;-6.60;99.90
30063;DHT22;16889;67.864;24.990;2024-02-26T23:29:20;-6.60;99.90
30063;DHT22;16889;67.864;24.990;2024-02-26T23:34:05;-6.60;99.90
30063;DHT22;16889;67.864;24.990;2024-02-26T23:38:51;-6.50;99.90
30063;DHT22;16889;67.864;24.990;2024-02-26T23:43:39;-6.50;99.90
30063;DHT22;16889;67.864;24.990;2024-02-26T23:48:25;-6.30;99.90
30063;DHT22;16889;67.864;24.990;2024-02-26T23:53:10;-6.20;99.90
30063;DHT22;16889;67.864;24.990;2024-02-26T23:57:56;-6.00;99.90
